Time;durP1;ratioP1;P1;durP2;ratioP2;P2;SDS_P1;SDS_P2;PMS_P1;PMS_P2;Temp;Humidity;BMP_temperature;BMP_pressure;BME280_temperature;BME280_humidity;BME280_pressure;Samples;Min_cycle;Max_cycle;Signal;HPM_P1;HPM_P2
2022/03/06 00:00:18;;;;;;;14.43;7.87;;;;;;;0.15;68.28;101429.97;4997648;28;20503;-72
2022/03/06 00:02:43;;;;;;;39.17;8.87;;;;;;;0.15;68.08;101423.91;4999989;28;20396;-72
2022/03/06 00:05:09;;;;;;;12.63;7.50;;;;;;;0.19;68.45;101426.72;4997931;28;20440;-72
2022/03/06 00:07:34;;;;;;;14.23;7.20;;;;;;;0.28;68.78;101428.00;4998906;28;20038;-72
2022/03/06 00:09:59;;;;;;;15.70;8.63;;;;;;;0.30;68.29;101432.47;4999316;28;20073;-72
2022/03/06 00:12:25;;;;;;;13.23;7.85;;;;;;;0.20;67.66;101433.69;4996902;28;20089;-72
2022/03/06 00:14:50;;;;;;;15.20;7.93;;;;;;;0.21;68.44;101432.91;4999990;28;20045;-72
2022/03/06 00:17:15;;;;;;;14.27;6.87;;;;;;;0.31;68.11;101428.16;4995749;28;20073;-72
2022/03/06 00:19:41;;;;;;;13.30;6.73;;;;;;;0.30;68.02;101427.25;4998506;28;20067;-72
2022/03/06 00:22:07;;;;;;;13.30;6.20;;;;;;;0.37;67.30;101431.06;4999468;28;20385;-72
2022/03/06 00:24:32;;;;;;;11.33;5.83;;;;;;;0.36;67.29;101437.94;4997131;28;20167;-72
2022/03/06 00:26:57;;;;;;;10.67;5.63;;;;;;;0.43;67.19;101439.16;4999651;28;20096;-72
2022/03/06 00:29:23;;;;;;;10.97;5.60;;;;;;;0.52;66.88;101433.50;4998130;28;20034;-73
2022/03/06 00:31:48;;;;;;;9.20;5.07;;;;;;;0.55;66.11;101438.84;4997703;28;20065;-73
2022/03/06 00:34:13;;;;;;;11.43;5.65;;;;;;;0.65;66.15;101435.88;4999991;28;20041;-73
2022/03/06 00:36:39;;;;;;;10.35;5.93;;;;;;;0.73;66.07;101438.84;4996933;28;20042;-73
2022/03/06 00:39:05;;;;;;;9.68;5.40;;;;;;;0.72;64.82;101432.78;4999134;28;20527;-72
2022/03/06 00:41:31;;;;;;;10.43;5.63;;;;;;;0.80;65.48;101435.75;4998302;28;20084;-72
2022/03/06 00:43:56;;;;;;;8.80;4.57;;;;;;;0.77;65.39;101436.47;4996270;28;20038;-72
2022/03/06 00:46:23;;;;;;;10.20;4.85;;;;;;;0.78;64.72;101433.06;4998313;28;20045;-72
2022/03/06 00:48:48;;;;;;;8.50;4.68;;;;;;;0.86;65.29;101434.34;5000456;28;20056;-72
2022/03/06 00:51:15;;;;;;;8.48;4.35;;;;;;;0.95;64.87;101431.28;4996930;28;20050;-72
2022/03/06 00:53:41;;;;;;;12.75;4.97;;;;;;;1.03;64.62;101429.91;4999222;28;20391;-74
2022/03/06 00:56:06;;;;;;;10.90;4.95;;;;;;;0.96;64.22;101439.97;4996774;28;20043;-72
2022/03/06 00:58:32;;;;;;;8.95;4.85;;;;;;;0.73;64.71;101438.84;4999157;28;20046;-72
2022/03/06 01:00:57;;;;;;;8.18;4.80;;;;;;;0.77;65.34;101433.88;4997644;28;20050;-72
2022/03/06 01:03:23;;;;;;;7.90;4.30;;;;;;;0.90;64.92;101437.06;4997585;28;20046;-72
2022/03/06 01:05:48;;;;;;;9.63;4.68;;;;;;;0.98;64.76;101435.72;4999347;28;20030;-72
2022/03/06 01:08:14;;;;;;;9.65;5.22;;;;;;;0.89;64.35;101430.97;4996625;28;20034;-72
2022/03/06 01:10:42;;;;;;;8.93;5.27;;;;;;;0.84;64.58;101428.16;4998900;28;20072;-72
2022/03/06 01:13:09;;;;;;;10.77;5.70;;;;;;;0.90;64.60;101431.88;4997875;28;20038;-72
2022/03/06 01:15:35;;;;;;;9.23;5.18;;;;;;;0.98;64.62;101434.00;4996664;28;20034;-72
2022/03/06 01:18:00;;;;;;;9.50;4.95;;;;;;;1.01;63.90;101435.88;4996453;28;20046;-72
2022/03/06 01:20:26;;;;;;;9.07;4.95;;;;;;;0.95;64.18;101425.19;4998637;28;20041;-73
2022/03/06 01:22:52;;;;;;;12.63;5.63;;;;;;;1.00;64.04;101429.78;5017052;28;20590;-72
2022/03/06 01:25:18;;;;;;;10.90;5.30;;;;;;;0.95;63.60;101426.06;5002259;28;20042;-72
2022/03/06 01:27:44;;;;;;;12.48;5.72;;;;;;;0.87;63.64;101437.81;4999504;28;20049;-72
2022/03/06 01:30:11;;;;;;;10.55;5.63;;;;;;;0.73;63.90;101437.13;5002212;28;20046;-72
2022/03/06 01:32:37;;;;;;;7.90;5.15;;;;;;;0.72;64.02;101437.97;5000970;28;20455;-73
2022/03/06 01:35:04;;;;;;;12.90;4.80;;;;;;;0.82;64.39;101440.19;5000092;28;20038;-72
2022/03/06 01:37:31;;;;;;;14.45;5.50;;;;;;;0.87;63.39;101449.09;5002849;28;20441;-72
2022/03/06 01:39:56;;;;;;;11.55;5.80;;;;;;;0.80;63.74;101447.03;5000266;28;20500;-73
2022/03/06 01:42:21;;;;;;;9.63;5.38;;;;;;;0.77;63.31;101451.19;5000441;28;20033;-73
2022/03/06 01:44:52;;;;;;;12.68;5.70;;;;;;;0.79;63.60;101453.03;5001866;28;20050;-74
2022/03/06 01:47:50;;;;;;;12.45;5.18;;;;;;;0.80;62.92;101439.22;4998173;28;20042;-73
2022/03/06 01:50:19;;;;;;;11.73;6.13;;;;;;;0.84;63.72;101442.88;5000681;28;20046;-73
2022/03/06 01:52:46;;;;;;;13.77;5.53;;;;;;;0.91;63.24;101449.25;4999109;28;20030;-73
2022/03/06 01:55:12;;;;;;;11.80;5.43;;;;;;;1.00;63.36;101439.28;4998217;28;20553;-73
2022/03/06 01:57:40;;;;;;;9.15;5.03;;;;;;;1.04;63.34;101436.88;5001232;28;20073;-73
2022/03/06 02:00:08;;;;;;;11.77;5.00;;;;;;;1.08;62.87;101444.03;5001314;28;20048;-73
2022/03/06 02:02:37;;;;;;;10.23;4.75;;;;;;;1.07;62.91;101438.75;4999072;28;20038;-73
2022/03/06 02:05:03;;;;;;;10.23;4.80;;;;;;;1.12;62.99;101433.75;5001082;28;20044;-73
2022/03/06 02:07:29;;;;;;;11.15;4.82;;;;;;;1.12;62.42;101439.84;5000940;28;20042;-73
2022/03/06 02:09:54;;;;;;;9.77;5.03;;;;;;;1.06;62.64;101429.16;4999510;28;20075;-73
2022/03/06 02:12:23;;;;;;;11.57;5.00;;;;;;;1.11;62.53;101427.69;5001582;28;20034;-72
2022/03/06 02:14:56;;;;;;;10.00;5.05;;;;;;;1.05;62.72;101430.88;4999928;28;20042;-73
2022/03/06 02:17:22;;;;;;;11.30;5.55;;;;;;;0.98;62.69;101430.53;4998905;28;20526;-73
2022/03/06 02:20:06;;;;;;;9.52;4.80;;;;;;;1.01;63.33;101425.47;4998759;28;20046;-73
2022/03/06 02:22:34;;;;;;;10.45;5.25;;;;;;;1.03;62.92;101429.91;4998329;28;20076;-73
2022/03/06 02:25:03;;;;;;;8.88;4.55;;;;;;;1.00;62.84;101426.28;5001284;28;20537;-72
2022/03/06 02:27:28;;;;;;;11.13;4.82;;;;;;;0.93;63.60;101422.50;5000688;28;20118;-73
2022/03/06 02:29:54;;;;;;;12.02;5.55;;;;;;;0.92;63.25;101425.03;4997838;28;20030;-72
2022/03/06 02:32:21;;;;;;;10.60;5.35;;;;;;;0.96;63.05;101420.03;5001184;28;20490;-72
2022/03/06 02:34:48;;;;;;;9.85;5.22;;;;;;;0.96;62.94;101421.75;4999669;28;20046;-72
2022/03/06 02:37:16;;;;;;;9.10;4.70;;;;;;;1.02;63.04;101427.22;4999667;28;20046;-72
2022/03/06 02:39:43;;;;;;;10.23;4.78;;;;;;;0.90;63.05;101426.69;5001639;28;20070;-72
2022/03/06 02:42:10;;;;;;;9.18;4.80;;;;;;;0.91;63.31;101423.25;4998456;28;20123;-71
2022/03/06 02:44:35;;;;;;;9.77;4.97;;;;;;;0.87;63.36;101423.13;5000282;28;20487;-72
2022/03/06 02:47:01;;;;;;;10.13;5.28;;;;;;;0.86;63.47;101434.34;4997714;28;20046;-72
2022/03/06 02:49:26;;;;;;;9.30;4.78;;;;;;;0.82;63.52;101428.91;5001689;28;20033;-71
2022/03/06 02:51:51;;;;;;;8.13;4.55;;;;;;;0.82;63.48;101427.19;4998207;28;20032;-73
2022/03/06 02:54:17;;;;;;;8.10;4.70;;;;;;;0.82;62.77;101429.78;5000637;28;20043;-72
2022/03/06 02:56:44;;;;;;;8.65;4.47;;;;;;;0.73;63.17;101429.34;4995469;28;20421;-72
2022/03/06 02:59:09;;;;;;;9.77;4.68;;;;;;;0.76;63.50;101432.13;5001364;28;20030;-72
2022/03/06 03:01:41;;;;;;;10.13;4.75;;;;;;;0.73;63.16;101429.34;4997886;28;20492;-71
2022/03/06 03:04:11;;;;;;;9.00;5.13;;;;;;;0.75;63.02;101421.63;4999993;28;20041;-71
2022/03/06 03:06:38;;;;;;;9.68;4.75;;;;;;;0.78;63.48;101421.78;5000903;28;20044;-71
2022/03/06 03:09:05;;;;;;;10.00;5.03;;;;;;;0.90;63.02;101426.69;4998156;28;20081;-71
2022/03/06 03:11:31;;;;;;;8.88;4.70;;;;;;;0.94;62.94;101423.38;4999837;28;20032;-71
2022/03/06 03:13:58;;;;;;;9.23;4.50;;;;;;;0.93;63.10;101421.63;4999965;28;20033;-71
2022/03/06 03:16:23;;;;;;;8.65;4.28;;;;;;;0.89;62.88;101417.97;4997859;28;20060;-71
2022/03/06 03:18:48;;;;;;;9.30;4.53;;;;;;;0.96;62.88;101419.16;5000926;28;20030;-72
2022/03/06 03:21:14;;;;;;;11.00;4.75;;;;;;;1.02;62.52;101420.34;4998567;28;20038;-71
2022/03/06 03:23:39;;;;;;;9.43;4.55;;;;;;;1.07;62.61;101428.34;4999302;28;20037;-71
2022/03/06 03:26:04;;;;;;;9.07;4.85;;;;;;;1.03;61.71;101426.44;5003286;28;20034;-71
2022/03/06 03:28:30;;;;;;;8.57;4.88;;;;;;;0.97;62.59;101419.25;5000747;28;20042;-71
2022/03/06 03:30:55;;;;;;;9.25;4.78;;;;;;;1.05;62.07;101417.91;4999443;28;20033;-71
2022/03/06 03:33:21;;;;;;;8.70;4.00;;;;;;;1.14;62.26;101426.94;5000477;28;20037;-71
2022/03/06 03:35:46;;;;;;;7.88;4.40;;;;;;;1.15;62.14;101428.69;5004898;28;20130;-71
2022/03/06 03:38:11;;;;;;;9.98;4.55;;;;;;;1.13;61.45;101430.31;5013095;28;20113;-71
2022/03/06 03:40:37;;;;;;;8.57;3.80;;;;;;;1.01;60.96;101430.66;5011308;28;20096;-71
2022/03/06 03:43:02;;;;;;;8.18;4.43;;;;;;;0.98;61.47;101426.22;4999769;28;20049;-71
2022/03/06 03:45:27;;;;;;;8.18;4.45;;;;;;;0.99;61.81;101421.91;4998334;28;20077;-71
2022/03/06 03:47:53;;;;;;;8.63;4.15;;;;;;;0.97;61.27;101429.66;5016532;28;20034;-72
2022/03/06 03:50:18;;;;;;;8.98;3.90;;;;;;;0.95;60.92;101430.38;5011817;28;20546;-71
2022/03/06 03:52:43;;;;;;;8.05;3.75;;;;;;;0.97;61.27;101429.66;4997148;28;20109;-71
2022/03/06 03:55:09;;;;;;;6.78;3.88;;;;;;;1.07;61.07;101433.53;4999626;28;20124;-71
2022/03/06 03:57:34;;;;;;;8.05;3.88;;;;;;;1.12;61.05;101437.25;4999151;28;20050;-72
2022/03/06 04:00:00;;;;;;;8.02;4.25;;;;;;;1.16;61.06;101434.00;4997900;28;20038;-71
2022/03/06 04:02:25;;;;;;;8.55;4.38;;;;;;;1.21;61.24;101437.69;5021069;28;20073;-72
2022/03/06 04:04:51;;;;;;;10.23;4.22;;;;;;;1.22;60.57;101436.84;5014272;28;20042;-72
2022/03/06 04:07:17;;;;;;;11.25;4.57;;;;;;;1.22;60.57;101442.06;4999206;28;20128;-72
2022/03/06 04:09:42;;;;;;;9.20;4.05;;;;;;;1.20;60.48;101442.81;4999189;28;20041;-72
2022/03/06 04:12:08;;;;;;;7.10;3.78;;;;;;;1.20;60.61;101441.09;4997172;28;20374;-72
2022/03/06 04:14:34;;;;;;;8.45;4.30;;;;;;;1.22;60.88;101439.47;5000241;28;20062;-72
2022/03/06 04:16:59;;;;;;;9.65;4.85;;;;;;;1.19;60.75;101447.13;4998096;28;20081;-72
2022/03/06 04:19:25;;;;;;;8.35;4.47;;;;;;;1.17;60.65;101448.75;4998515;28;20080;-72
2022/03/06 04:21:50;;;;;;;7.78;4.53;;;;;;;1.16;60.25;101452.19;4999150;28;20404;-72
2022/03/06 04:24:15;;;;;;;9.35;4.80;;;;;;;1.14;60.61;101443.41;5010512;28;20044;-72
2022/03/06 04:26:41;;;;;;;9.95;4.80;;;;;;;1.12;60.28;101445.03;5010663;28;20137;-71
2022/03/06 04:29:06;;;;;;;10.43;4.95;;;;;;;1.09;60.68;101447.50;4998950;28;20042;-71
2022/03/06 04:31:32;;;;;;;9.82;4.53;;;;;;;1.07;60.78;101441.34;4996067;28;20039;-71
2022/03/06 04:33:57;;;;;;;9.48;4.78;;;;;;;1.05;60.13;101446.50;4999874;28;20046;-72
2022/03/06 04:36:23;;;;;;;8.52;4.55;;;;;;;1.00;60.12;101441.91;4996992;28;20038;-71
2022/03/06 04:38:48;;;;;;;8.05;4.28;;;;;;;1.02;60.18;101448.94;4999144;28;20129;-71
2022/03/06 04:41:14;;;;;;;10.88;4.97;;;;;;;0.93;59.34;101445.00;4998149;28;20082;-71
2022/03/06 04:43:39;;;;;;;9.13;4.38;;;;;;;1.01;59.41;101447.16;4997485;28;20043;-71
2022/03/06 04:46:04;;;;;;;9.00;4.25;;;;;;;1.00;59.27;101452.28;4999839;28;20065;-71
2022/03/06 04:48:30;;;;;;;9.55;4.50;;;;;;;1.05;59.65;101458.59;5004151;28;20033;-71
2022/03/06 04:50:55;;;;;;;8.43;4.40;;;;;;;1.08;59.55;101462.22;5003674;28;20038;-71
2022/03/06 04:53:21;;;;;;;9.90;4.28;;;;;;;1.05;58.44;101462.09;4997709;28;20041;-71
2022/03/06 04:55:46;;;;;;;10.15;5.22;;;;;;;1.00;58.72;101457.50;4999722;28;20038;-71
2022/03/06 04:58:11;;;;;;;9.07;4.00;;;;;;;1.03;58.85;101455.91;4999123;28;20041;-71
2022/03/06 05:00:37;;;;;;;7.88;3.92;;;;;;;1.04;58.70;101457.69;5002443;28;20038;-72
2022/03/06 05:03:02;;;;;;;9.35;4.20;;;;;;;1.01;57.93;101459.25;5006768;28;20522;-71
2022/03/06 05:05:28;;;;;;;8.80;4.65;;;;;;;0.97;57.96;101452.13;5005631;28;20162;-71
2022/03/06 05:07:53;;;;;;;12.13;5.10;;;;;;;1.02;58.23;101458.44;5003664;28;20484;-72
2022/03/06 05:10:18;;;;;;;9.25;4.60;;;;;;;1.04;57.74;101455.09;4999945;28;20173;-71
2022/03/06 05:12:44;;;;;;;8.40;4.07;;;;;;;1.05;57.37;101449.09;5004723;28;20441;-71
2022/03/06 05:15:11;;;;;;;9.02;3.80;;;;;;;1.14;58.04;101458.13;5003596;28;20035;-71
2022/03/06 05:17:38;;;;;;;8.88;4.25;;;;;;;1.12;58.10;101458.03;5000435;28;20080;-71
2022/03/06 05:20:04;;;;;;;7.28;3.85;;;;;;;1.11;58.15;101450.19;5002912;28;20042;-71
2022/03/06 05:22:29;;;;;;;8.05;3.70;;;;;;;1.11;58.21;101451.09;5000445;28;20400;-72
2022/03/06 05:24:55;;;;;;;9.70;4.50;;;;;;;1.15;57.97;101446.91;5001221;28;20034;-71
2022/03/06 05:27:20;;;;;;;7.10;3.80;;;;;;;1.16;58.22;101449.59;5001993;28;20045;-72
2022/03/06 05:29:45;;;;;;;7.32;3.92;;;;;;;1.11;58.12;101447.59;4999740;28;20055;-71
2022/03/06 05:32:11;;;;;;;11.00;4.53;;;;;;;1.08;58.61;101450.94;4999357;28;20043;-71
2022/03/06 05:34:36;;;;;;;9.98;4.85;;;;;;;1.13;58.47;101446.84;5016743;28;20042;-71
2022/03/06 05:37:02;;;;;;;10.00;4.13;;;;;;;1.14;58.75;101445.13;5001436;28;20029;-71
2022/03/06 05:39:27;;;;;;;9.02;3.97;;;;;;;1.08;58.33;101456.13;4999874;28;20088;-71
2022/03/06 05:41:52;;;;;;;8.13;3.95;;;;;;;1.05;58.91;101453.41;5001975;28;20066;-71
2022/03/06 05:44:18;;;;;;;9.93;4.30;;;;;;;1.04;58.61;101452.47;5000000;28;20045;-72
2022/03/06 05:46:43;;;;;;;6.78;3.70;;;;;;;1.08;58.55;101446.63;5001145;28;20038;-72
2022/03/06 05:49:12;;;;;;;11.57;4.70;;;;;;;1.08;58.99;101445.75;5004472;28;20056;-72
2022/03/06 05:51:39;;;;;;;8.27;4.40;;;;;;;1.11;58.00;101453.69;5002346;28;20037;-72
2022/03/06 05:54:04;;;;;;;7.35;3.92;;;;;;;1.04;57.63;101446.41;5000077;28;20113;-71
2022/03/06 05:56:30;;;;;;;8.35;4.20;;;;;;;1.06;58.12;101450.84;5000703;28;20122;-72
2022/03/06 05:58:55;;;;;;;8.98;4.00;;;;;;;1.07;57.81;101450.06;5001625;28;20034;-73
2022/03/06 06:01:20;;;;;;;10.00;4.28;;;;;;;1.09;57.90;101451.00;5005960;28;20054;-73
2022/03/06 06:03:46;;;;;;;8.23;4.18;;;;;;;1.11;57.45;101458.88;4999363;28;20030;-72
2022/03/06 06:06:11;;;;;;;8.73;4.40;;;;;;;1.09;57.55;101465.72;5001113;28;20038;-72
2022/03/06 06:08:36;;;;;;;8.32;4.10;;;;;;;1.03;58.44;101455.03;5000434;28;20096;-72
2022/03/06 06:11:02;;;;;;;9.07;4.43;;;;;;;1.09;57.81;101455.31;4999298;28;20038;-72
2022/03/06 06:13:27;;;;;;;6.00;3.92;;;;;;;1.01;56.55;101461.84;5001918;28;20042;-72
2022/03/06 06:15:52;;;;;;;10.43;4.03;;;;;;;0.91;56.72;101464.84;5011159;28;20393;-72
2022/03/06 06:18:18;;;;;;;7.07;3.40;;;;;;;0.87;56.09;101459.50;5011350;28;20116;-73
2022/03/06 06:20:44;;;;;;;5.70;3.90;;;;;;;0.80;54.43;101461.72;5010482;28;20499;-72
2022/03/06 06:23:09;;;;;;;7.45;3.55;;;;;;;0.82;53.30;101466.19;5028630;28;20042;-72
2022/03/06 06:25:34;;;;;;;7.90;3.03;;;;;;;0.86;52.27;101462.00;5003068;28;20037;-71
2022/03/06 06:28:00;;;;;;;6.38;3.13;;;;;;;0.92;52.35;101464.00;5035494;28;20114;-71
2022/03/06 06:30:25;;;;;;;5.70;3.10;;;;;;;1.08;51.91;101469.13;4998058;28;20026;-71
2022/03/06 06:32:51;;;;;;;5.40;2.60;;;;;;;1.18;50.68;101460.97;4997717;28;20042;-71
2022/03/06 06:35:18;;;;;;;5.95;3.17;;;;;;;1.22;49.27;101467.19;5001689;28;20087;-71
2022/03/06 06:37:44;;;;;;;6.65;2.80;;;;;;;1.31;50.15;101459.81;4999247;28;20034;-71
2022/03/06 06:40:10;;;;;;;4.97;2.65;;;;;;;1.33;50.45;101465.06;5000182;28;20033;-71
2022/03/06 06:42:35;;;;;;;8.23;3.40;;;;;;;1.32;50.16;101466.78;5001052;28;20089;-71
2022/03/06 06:45:00;;;;;;;6.03;3.28;;;;;;;1.22;49.77;101467.19;5009324;28;20030;-71
2022/03/06 06:47:26;;;;;;;5.30;3.05;;;;;;;1.24;49.37;101463.84;5002140;28;20530;-71
2022/03/06 06:49:52;;;;;;;6.97;2.80;;;;;;;1.29;49.22;101464.94;5006936;28;20120;-71
2022/03/06 06:52:17;;;;;;;4.55;3.03;;;;;;;1.34;47.75;101474.63;5008209;28;20125;-72
2022/03/06 06:54:42;;;;;;;6.30;2.92;;;;;;;1.36;48.13;101473.91;5008371;28;20057;-72
2022/03/06 06:57:08;;;;;;;5.88;3.03;;;;;;;1.41;48.86;101474.13;5006630;28;20060;-72
2022/03/06 06:59:33;;;;;;;5.57;3.33;;;;;;;1.37;50.16;101480.91;5007199;28;20087;-71
2022/03/06 07:01:58;;;;;;;5.63;3.13;;;;;;;1.39;49.78;101487.06;4998675;28;20118;-71
2022/03/06 07:04:23;;;;;;;8.75;3.75;;;;;;;1.35;49.96;101479.94;5006622;28;20057;-71
2022/03/06 07:06:49;;;;;;;5.18;2.78;;;;;;;1.38;49.60;101479.19;5008146;28;20072;-71
2022/03/06 07:09:14;;;;;;;4.65;3.17;;;;;;;1.42;49.22;101478.50;5008155;28;20069;-71
2022/03/06 07:11:39;;;;;;;6.55;2.72;;;;;;;1.42;49.65;101475.91;5007809;28;20073;-72
2022/03/06 07:14:05;;;;;;;7.43;3.42;;;;;;;1.52;50.04;101483.31;4999730;28;20033;-73
2022/03/06 07:16:30;;;;;;;6.28;2.63;;;;;;;1.61;50.13;101488.94;5000306;28;20030;-72
2022/03/06 07:18:57;;;;;;;5.63;2.63;;;;;;;1.65;49.49;101483.06;5012364;28;20412;-72
2022/03/06 07:21:22;;;;;;;6.50;2.90;;;;;;;1.69;49.19;101490.16;5000403;28;20036;-71
2022/03/06 07:23:47;;;;;;;6.22;3.10;;;;;;;1.59;49.13;101485.34;5005374;28;20126;-71
2022/03/06 07:26:12;;;;;;;7.68;3.70;;;;;;;1.53;50.48;101480.78;5007879;28;20065;-72
2022/03/06 07:28:38;;;;;;;5.82;3.38;;;;;;;1.52;51.00;101488.53;5007997;28;20487;-72
2022/03/06 07:31:03;;;;;;;5.45;2.95;;;;;;;1.52;50.13;101488.53;5007644;28;20712;-72
2022/03/06 07:33:28;;;;;;;5.75;3.20;;;;;;;1.53;49.90;101490.28;5007705;28;20118;-72
2022/03/06 07:35:54;;;;;;;6.55;3.10;;;;;;;1.41;48.73;101489.72;5007738;28;20064;-73
2022/03/06 07:38:19;;;;;;;5.00;2.78;;;;;;;1.46;46.75;101491.72;5007926;28;20063;-71
2022/03/06 07:40:44;;;;;;;6.22;2.80;;;;;;;1.44;46.82;101484.66;5007577;28;20035;-71
2022/03/06 07:43:10;;;;;;;3.78;2.45;;;;;;;1.53;47.02;101496.38;5007367;28;20061;-72
2022/03/06 07:45:35;;;;;;;5.90;2.97;;;;;;;1.59;46.74;101495.75;4999764;28;20038;-72
2022/03/06 07:48:03;;;;;;;7.15;2.90;;;;;;;1.62;46.31;101505.44;4999167;28;20042;-72
2022/03/06 07:50:29;;;;;;;5.53;2.75;;;;;;;1.67;46.36;101493.50;4997816;28;20431;-71
2022/03/06 07:52:56;;;;;;;7.85;2.92;;;;;;;1.73;46.05;101499.91;5000151;28;20022;-71
2022/03/06 07:55:21;;;;;;;5.38;2.58;;;;;;;1.72;46.38;101500.69;4998223;28;20404;-72
2022/03/06 07:57:47;;;;;;;6.28;3.00;;;;;;;1.60;46.22;101494.03;4998734;28;20034;-71
2022/03/06 08:00:13;;;;;;;5.35;2.65;;;;;;;1.68;46.91;101497.91;5002415;28;20034;-71
2022/03/06 08:02:39;;;;;;;6.18;3.47;;;;;;;1.67;46.24;101501.31;5000170;28;20039;-71
2022/03/06 08:05:06;;;;;;;5.65;2.85;;;;;;;1.64;45.86;101499.47;4998192;28;20057;-70
2022/03/06 08:07:31;;;;;;;4.93;2.67;;;;;;;1.67;45.82;101499.59;5003851;28;20042;-70
2022/03/06 08:09:57;;;;;;;3.75;2.40;;;;;;;1.71;45.54;101500.66;4997272;28;20046;-70
2022/03/06 08:12:24;;;;;;;5.63;2.80;;;;;;;1.85;45.42;101496.94;5005606;28;20038;-70
2022/03/06 08:14:50;;;;;;;7.07;2.85;;;;;;;1.77;45.31;101505.25;5006879;28;20117;-71
2022/03/06 08:17:17;;;;;;;5.93;2.92;;;;;;;1.75;44.71;101502.56;5000245;28;20038;-69
2022/03/06 08:19:42;;;;;;;4.30;2.67;;;;;;;1.82;44.78;101508.94;4999492;28;20042;-70
2022/03/06 08:22:08;;;;;;;5.88;2.60;;;;;;;1.85;45.30;101503.88;4998020;28;20388;-70
2022/03/06 08:24:33;;;;;;;5.30;2.95;;;;;;;2.06;46.07;101503.94;5000787;28;20041;-70
2022/03/06 08:26:58;;;;;;;6.00;2.65;;;;;;;2.24;44.52;101498.63;4999085;28;20038;-70
2022/03/06 08:29:24;;;;;;;5.03;2.90;;;;;;;2.20;45.11;101508.00;4998968;28;20034;-69
2022/03/06 08:31:49;;;;;;;6.60;2.75;;;;;;;2.11;46.13;101505.91;5000378;28;20042;-69
2022/03/06 08:34:14;;;;;;;8.65;3.35;;;;;;;2.06;45.94;101509.13;5000215;28;20041;-69
2022/03/06 08:36:39;;;;;;;7.13;3.08;;;;;;;1.91;46.52;101510.25;5003077;28;20068;-69
2022/03/06 08:39:05;;;;;;;7.97;4.03;;;;;;;1.86;47.44;101503.94;5001649;28;20420;-69
2022/03/06 08:41:30;;;;;;;8.90;4.20;;;;;;;1.91;47.23;101506.72;5001006;28;20039;-69
2022/03/06 08:43:55;;;;;;;7.10;3.85;;;;;;;2.02;47.10;101502.91;5003134;28;20042;-69
2022/03/06 08:46:21;;;;;;;7.05;3.30;;;;;;;1.94;46.46;101509.50;5000404;28;20121;-69
2022/03/06 08:48:46;;;;;;;4.85;3.10;;;;;;;2.08;46.77;101507.50;5002580;28;20042;-69
2022/03/06 08:51:13;;;;;;;7.35;4.13;;;;;;;2.13;47.47;101503.38;5001502;28;20034;-70
2022/03/06 08:53:39;;;;;;;6.78;3.65;;;;;;;2.24;46.52;101506.44;5000609;28;20034;-69
2022/03/06 08:56:04;;;;;;;6.32;3.90;;;;;;;2.19;46.57;101501.91;5003269;28;20037;-69
2022/03/06 08:58:29;;;;;;;7.30;3.80;;;;;;;2.13;46.64;101509.47;5000569;28;20499;-69
2022/03/06 09:00:55;;;;;;;7.40;3.90;;;;;;;2.20;46.40;101508.00;5000490;28;20495;-69
2022/03/06 09:03:20;;;;;;;7.07;3.80;;;;;;;2.15;46.59;101515.66;4999087;28;20083;-69
2022/03/06 09:05:46;;;;;;;5.72;3.17;;;;;;;2.16;46.18;101512.22;5007501;28;20046;-68
2022/03/06 09:08:11;;;;;;;6.20;3.63;;;;;;;2.12;46.17;101520.72;5005381;28;20038;-69
2022/03/06 09:10:39;;;;;;;6.15;3.65;;;;;;;2.11;46.41;101512.84;5008594;28;20454;-69
2022/03/06 09:13:06;;;;;;;5.85;3.22;;;;;;;2.07;46.24;101521.31;5011270;28;20112;-69
2022/03/06 09:15:31;;;;;;;6.00;3.58;;;;;;;2.19;45.85;101516.66;5009922;28;20543;-69
2022/03/06 09:17:57;;;;;;;4.35;3.00;;;;;;;2.21;45.71;101516.75;5009669;28;20116;-69
2022/03/06 09:20:23;;;;;;;5.60;3.55;;;;;;;2.21;44.95;101508.94;5009815;28;20034;-68
2022/03/06 09:22:49;;;;;;;7.10;3.70;;;;;;;2.20;45.37;101513.22;5009003;28;20048;-68
2022/03/06 09:25:15;;;;;;;7.22;4.18;;;;;;;2.22;45.95;101510.69;5009847;28;20116;-69
2022/03/06 09:27:41;;;;;;;5.43;3.45;;;;;;;2.36;45.50;101514.81;5009757;28;20030;-68
2022/03/06 09:30:07;;;;;;;8.50;3.50;;;;;;;2.33;45.00;101517.25;5009451;28;20465;-68
2022/03/06 09:32:33;;;;;;;8.63;3.53;;;;;;;2.35;44.67;101511.28;5003894;28;20120;-68
2022/03/06 09:34:58;;;;;;;8.18;3.38;;;;;;;2.38;44.04;101519.25;5001789;28;20563;-68
2022/03/06 09:37:23;;;;;;;8.50;3.47;;;;;;;2.18;44.46;101520.97;4999528;28;20128;-69
2022/03/06 09:39:49;;;;;;;7.22;3.80;;;;;;;2.17;44.11;101527.03;5002421;28;20049;-69
2022/03/06 09:42:18;;;;;;;6.07;3.50;;;;;;;2.15;44.52;101517.38;4999323;28;20074;-69
2022/03/06 09:44:48;;;;;;;7.13;3.38;;;;;;;2.16;42.97;101514.81;5000154;28;20073;-69
2022/03/06 09:47:15;;;;;;;7.38;3.50;;;;;;;2.24;43.37;101511.66;5008182;28;20385;-69
2022/03/06 09:49:43;;;;;;;7.20;3.13;;;;;;;2.33;43.37;101514.63;5011472;28;20491;-69
2022/03/06 09:52:09;;;;;;;8.88;3.78;;;;;;;2.35;43.54;101520.81;5010932;28;20520;-69
2022/03/06 09:54:35;;;;;;;7.05;3.90;;;;;;;2.32;43.68;101512.88;4999345;28;20038;-69
2022/03/06 09:57:01;;;;;;;8.02;3.85;;;;;;;2.34;43.69;101516.44;5002089;28;20117;-70
2022/03/06 09:59:26;;;;;;;9.15;4.55;;;;;;;2.30;43.24;101520.59;5041088;28;20030;-69
2022/03/06 10:01:52;;;;;;;6.28;3.33;;;;;;;2.37;43.57;101519.16;5011653;28;20915;-68
2022/03/06 10:04:20;;;;;;;7.00;3.65;;;;;;;2.39;43.16;101517.53;4998460;28;20080;-69
2022/03/06 10:07:06;;;;;;;7.95;3.88;;;;;;;2.40;44.15;101516.69;4999103;28;20042;-67
2022/03/06 10:09:33;;;;;;;7.63;3.90;;;;;;;2.50;43.55;101520.59;4999192;28;20054;-68
2022/03/06 10:11:59;;;;;;;7.15;3.75;;;;;;;2.40;43.10;101521.91;5002666;28;20053;-69
2022/03/06 10:14:41;;;;;;;7.47;3.75;;;;;;;2.31;43.03;101525.00;5004455;28;20433;-69
2022/03/06 10:17:11;;;;;;;5.88;3.70;;;;;;;2.28;42.69;101531.78;5000362;28;20038;-70
2022/03/06 10:19:55;;;;;;;5.97;3.70;;;;;;;2.24;42.99;101529.88;4999466;28;20030;-72
2022/03/06 10:22:24;;;;;;;7.15;3.58;;;;;;;2.31;43.23;101531.94;4999450;28;20038;-70
2022/03/06 10:24:55;;;;;;;6.53;3.55;;;;;;;2.46;42.71;101523.88;4998856;28;20034;-69
2022/03/06 10:27:46;;;;;;;7.25;4.10;;;;;;;2.60;43.26;101525.38;5000460;28;20034;-69
2022/03/06 10:30:25;;;;;;;8.98;4.13;;;;;;;2.79;42.83;101525.28;5003496;28;20049;-69
2022/03/06 10:32:50;;;;;;;6.38;3.30;;;;;;;2.66;43.00;101522.13;4997645;28;20041;-70
2022/03/06 10:35:16;;;;;;;5.93;3.50;;;;;;;2.48;44.04;101520.50;5000579;28;20049;-69
2022/03/06 10:37:41;;;;;;;7.53;3.05;;;;;;;2.48;43.19;101510.09;5007222;28;20030;-69
2022/03/06 10:40:07;;;;;;;7.88;3.10;;;;;;;2.58;43.96;101517.47;5011733;28;20084;-71
2022/03/06 10:42:33;;;;;;;5.25;2.55;;;;;;;2.60;43.01;101513.22;5015917;28;20381;-70
2022/03/06 10:44:58;;;;;;;5.50;2.70;;;;;;;2.58;43.97;101514.88;5010138;28;20037;-70
2022/03/06 10:47:24;;;;;;;5.10;3.03;;;;;;;2.50;45.18;101513.66;5009402;28;20061;-70
2022/03/06 10:50:04;;;;;;;5.57;2.92;;;;;;;2.52;44.87;101511.13;5008615;28;20045;-70
2022/03/06 10:52:39;;;;;;;7.65;3.30;;;;;;;2.36;45.44;101515.69;5008120;28;20030;-71
2022/03/06 10:55:04;;;;;;;5.07;3.25;;;;;;;2.39;45.39;101517.53;5006002;28;20493;-71
2022/03/06 10:57:30;;;;;;;8.70;3.20;;;;;;;2.50;45.33;101524.06;5008615;28;20038;-70
2022/03/06 10:59:58;;;;;;;6.13;2.45;;;;;;;2.58;44.99;101516.59;5008385;28;20030;-70
2022/03/06 11:02:25;;;;;;;5.53;2.30;;;;;;;2.66;44.07;101509.97;5004372;28;20034;-70
2022/03/06 11:04:53;;;;;;;6.82;2.55;;;;;;;2.74;44.32;101505.97;5017605;28;20506;-70
2022/03/06 11:07:19;;;;;;;6.65;2.55;;;;;;;2.84;44.47;101505.50;5012776;28;20132;-70
2022/03/06 11:09:46;;;;;;;7.15;2.63;;;;;;;3.08;44.79;101505.59;5018469;28;20077;-71
2022/03/06 11:12:11;;;;;;;5.03;2.42;;;;;;;3.59;44.22;101496.22;5011067;28;20075;-70
2022/03/06 11:14:37;;;;;;;5.97;2.65;;;;;;;3.90;42.56;101486.13;5007427;28;20046;-70
2022/03/06 11:17:02;;;;;;;6.18;2.47;;;;;;;4.16;42.56;101493.97;5034608;28;20039;-70
2022/03/06 11:19:32;;;;;;;6.20;3.10;;;;;;;4.30;41.77;101487.50;5016759;28;20120;-71
2022/03/06 11:22:15;;;;;;;6.53;3.00;;;;;;;4.54;42.00;101483.97;5000573;28;20531;-71
2022/03/06 11:24:47;;;;;;;6.28;2.63;;;;;;;4.71;41.62;101481.91;5017221;28;20059;-70
2022/03/06 11:27:38;;;;;;;6.90;2.65;;;;;;;4.56;40.69;101483.19;5007518;28;20122;-70